sensor_id;sensor_type;location;lat;lon;timestamp;temperature;humidity
16313;DHT22;8265;52.622;13.296;2024-02-21T00:01:38;6.70;85.50
16313;DHT22;8265;52.622;13.296;2024-02-21T00:06:59;6.80;85.00
16313;DHT22;8265;52.622;13.296;2024-02-21T00:12:20;6.80;85.20
16313;DHT22;8265;52.622;13.296;2024-02-21T00:17:43;6.80;84.70
16313;DHT22;8265;52.622;13.296;2024-02-21T00:23:02;6.90;84.30
16313;DHT22;8265;52.622;13.296;2024-02-21T00:28:23;6.90;83.80
16313;DHT22;8265;52.622;13.296;2024-02-21T00:33:44;7.00;83.60
16313;DHT22;8265;52.622;13.296;2024-02-21T00:39:05;7.00;83.60
16313;DHT22;8265;52.622;13.296;2024-02-21T00:44:26;7.00;83.10
16313;DHT22;8265;52.622;13.296;2024-02-21T00:49:47;6.90;83.60
16313;DHT22;8265;52.622;13.296;2024-02-21T00:55:08;6.90;83.30
16313;DHT22;8265;52.622;13.296;2024-02-21T01:00:29;6.90;83.50
16313;DHT22;8265;52.622;13.296;2024-02-21T01:05:50;6.90;83.20
16313;DHT22;8265;52.622;13.296;2024-02-21T01:11:11;6.90;83.20
16313;DHT22;8265;52.622;13.296;2024-02-21T01:16:32;6.90;83.10
16313;DHT22;8265;52.622;13.296;2024-02-21T01:21:53;7.00;82.50
16313;DHT22;8265;52.622;13.296;2024-02-21T01:27:14;7.00;82.60
16313;DHT22;8265;52.622;13.296;2024-02-21T01:32:35;7.00;82.20
16313;DHT22;8265;52.622;13.296;2024-02-21T01:37:56;7.00;82.20
16313;DHT22;8265;52.622;13.296;2024-02-21T01:43:18;7.10;81.70
16313;DHT22;8265;52.622;13.296;2024-02-21T01:48:38;7.10;81.60
16313;DHT22;8265;52.622;13.296;2024-02-21T01:53:59;7.20;81.40
16313;DHT22;8265;52.622;13.296;2024-02-21T01:59:21;7.20;80.80
16313;DHT22;8265;52.622;13.296;2024-02-21T02:04:41;7.20;81.10
16313;DHT22;8265;52.622;13.296;2024-02-21T02:10:02;7.20;81.20
16313;DHT22;8265;52.622;13.296;2024-02-21T02:15:23;7.20;82.00
16313;DHT22;8265;52.622;13.296;2024-02-21T02:20:44;7.10;83.40
16313;DHT22;8265;52.622;13.296;2024-02-21T02:26:05;7.00;84.80
16313;DHT22;8265;52.622;13.296;2024-02-21T02:31:26;6.90;86.70
16313;DHT22;8265;52.622;13.296;2024-02-21T02:36:47;6.80;87.90
16313;DHT22;8265;52.622;13.296;2024-02-21T02:42:08;6.70;89.00
16313;DHT22;8265;52.622;13.296;2024-02-21T02:47:29;6.60;90.60
16313;DHT22;8265;52.622;13.296;2024-02-21T02:52:50;6.50;91.60
16313;DHT22;8265;52.622;13.296;2024-02-21T02:58:11;6.40;92.30
16313;DHT22;8265;52.622;13.296;2024-02-21T03:03:32;6.20;93.70
16313;DHT22;8265;52.622;13.296;2024-02-21T03:08:53;6.20;94.90
16313;DHT22;8265;52.622;13.296;2024-02-21T03:14:14;6.30;94.30
16313;DHT22;8265;52.622;13.296;2024-02-21T03:19:35;6.30;94.50
16313;DHT22;8265;52.622;13.296;2024-02-21T03:24:56;6.30;95.10
16313;DHT22;8265;52.622;13.296;2024-02-21T03:30:17;6.30;95.40
16313;DHT22;8265;52.622;13.296;2024-02-21T03:35:38;6.30;95.90
16313;DHT22;8265;52.622;13.296;2024-02-21T03:40:59;6.20;96.00
16313;DHT22;8265;52.622;13.296;2024-02-21T03:46:20;6.20;96.20
16313;DHT22;8265;52.622;13.296;2024-02-21T03:51:41;6.20;96.90
16313;DHT22;8265;52.622;13.296;2024-02-21T03:57:02;6.20;97.10
16313;DHT22;8265;52.622;13.296;2024-02-21T04:02:23;6.20;97.30
16313;DHT22;8265;52.622;13.296;2024-02-21T04:07:44;6.20;97.20
16313;DHT22;8265;52.622;13.296;2024-02-21T04:13:08;6.30;96.90
16313;DHT22;8265;52.622;13.296;2024-02-21T04:18:26;6.20;97.10
16313;DHT22;8265;52.622;13.296;2024-02-21T04:23:47;6.30;97.00
16313;DHT22;8265;52.622;13.296;2024-02-21T04:29:08;6.30;97.00
16313;DHT22;8265;52.622;13.296;2024-02-21T04:34:29;6.20;97.40
16313;DHT22;8265;52.622;13.296;2024-02-21T04:39:50;6.10;97.30
16313;DHT22;8265;52.622;13.296;2024-02-21T04:45:11;6.20;97.20
16313;DHT22;8265;52.622;13.296;2024-02-21T04:50:32;6.20;97.30
16313;DHT22;8265;52.622;13.296;2024-02-21T04:55:53;6.20;97.60
16313;DHT22;8265;52.622;13.296;2024-02-21T05:01:20;6.20;97.00
16313;DHT22;8265;52.622;13.296;2024-02-21T05:06:39;6.30;96.40
16313;DHT22;8265;52.622;13.296;2024-02-21T05:11:56;6.30;96.10
16313;DHT22;8265;52.622;13.296;2024-02-21T05:17:17;6.30;96.50
16313;DHT22;8265;52.622;13.296;2024-02-21T05:22:38;6.30;97.20
16313;DHT22;8265;52.622;13.296;2024-02-21T05:27:59;6.30;96.90
16313;DHT22;8265;52.622;13.296;2024-02-21T05:33:20;6.30;96.50
16313;DHT22;8265;52.622;13.296;2024-02-21T05:38:41;6.30;96.40
16313;DHT22;8265;52.622;13.296;2024-02-21T05:44:02;6.30;96.10
16313;DHT22;8265;52.622;13.296;2024-02-21T05:49:23;6.30;96.30
16313;DHT22;8265;52.622;13.296;2024-02-21T05:54:44;6.20;96.60
16313;DHT22;8265;52.622;13.296;2024-02-21T06:00:05;6.30;96.10
16313;DHT22;8265;52.622;13.296;2024-02-21T06:05:26;6.40;96.10
16313;DHT22;8265;52.622;13.296;2024-02-21T06:10:47;6.30;96.30
16313;DHT22;8265;52.622;13.296;2024-02-21T06:16:08;6.40;95.70
16313;DHT22;8265;52.622;13.296;2024-02-21T06:21:29;6.40;95.70
16313;DHT22;8265;52.622;13.296;2024-02-21T06:26:50;6.40;95.40
16313;DHT22;8265;52.622;13.296;2024-02-21T06:32:11;6.40;95.30
16313;DHT22;8265;52.622;13.296;2024-02-21T06:37:32;6.50;94.50
16313;DHT22;8265;52.622;13.296;2024-02-21T06:42:53;6.50;94.60
16313;DHT22;8265;52.622;13.296;2024-02-21T06:48:14;6.60;94.20
16313;DHT22;8265;52.622;13.296;2024-02-21T06:53:35;6.60;94.10
16313;DHT22;8265;52.622;13.296;2024-02-21T06:58:56;6.60;93.50
16313;DHT22;8265;52.622;13.296;2024-02-21T07:04:17;6.70;93.70
16313;DHT22;8265;52.622;13.296;2024-02-21T07:09:38;6.60;93.90
16313;DHT22;8265;52.622;13.296;2024-02-21T07:14:59;6.70;93.10
16313;DHT22;8265;52.622;13.296;2024-02-21T07:20:20;6.80;93.20
16313;DHT22;8265;52.622;13.296;2024-02-21T07:25:41;6.90;92.10
16313;DHT22;8265;52.622;13.296;2024-02-21T07:31:02;6.90;92.30
16313;DHT22;8265;52.622;13.296;2024-02-21T07:36:28;7.00;91.20
16313;DHT22;8265;52.622;13.296;2024-02-21T07:41:44;7.00;90.90
16313;DHT22;8265;52.622;13.296;2024-02-21T07:47:05;7.00;91.00
16313;DHT22;8265;52.622;13.296;2024-02-21T07:52:26;7.20;90.10
16313;DHT22;8265;52.622;13.296;2024-02-21T07:57:47;7.20;90.10
16313;DHT22;8265;52.622;13.296;2024-02-21T08:03:08;7.20;88.90
16313;DHT22;8265;52.622;13.296;2024-02-21T08:08:29;7.30;88.30
16313;DHT22;8265;52.622;13.296;2024-02-21T08:13:50;7.40;88.30
16313;DHT22;8265;52.622;13.296;2024-02-21T08:19:11;7.40;87.60
16313;DHT22;8265;52.622;13.296;2024-02-21T08:24:32;7.50;87.20
16313;DHT22;8265;52.622;13.296;2024-02-21T08:29:53;7.50;87.10
16313;DHT22;8265;52.622;13.296;2024-02-21T08:35:14;7.50;86.40
16313;DHT22;8265;52.622;13.296;2024-02-21T08:40:35;7.80;85.80
16313;DHT22;8265;52.622;13.296;2024-02-21T08:45:56;8.00;85.30
16313;DHT22;8265;52.622;13.296;2024-02-21T08:51:17;8.00;84.50
16313;DHT22;8265;52.622;13.296;2024-02-21T08:56:38;8.00;84.20
16313;DHT22;8265;52.622;13.296;2024-02-21T09:01:59;8.00;84.30
16313;DHT22;8265;52.622;13.296;2024-02-21T09:07:20;8.00;84.00
16313;DHT22;8265;52.622;13.296;2024-02-21T09:12:41;8.00;84.60
16313;DHT22;8265;52.622;13.296;2024-02-21T09:18:02;8.10;83.30
16313;DHT22;8265;52.622;13.296;2024-02-21T09:23:25;8.10;83.30
16313;DHT22;8265;52.622;13.296;2024-02-21T09:28:44;8.20;83.40
16313;DHT22;8265;52.622;13.296;2024-02-21T09:34:05;8.40;82.90
16313;DHT22;8265;52.622;13.296;2024-02-21T09:39:26;8.60;81.40
16313;DHT22;8265;52.622;13.296;2024-02-21T09:44:48;8.60;81.40
16313;DHT22;8265;52.622;13.296;2024-02-21T09:50:08;8.60;81.50
16313;DHT22;8265;52.622;13.296;2024-02-21T09:55:29;8.60;81.10
16313;DHT22;8265;52.622;13.296;2024-02-21T10:00:50;8.80;80.30
16313;DHT22;8265;52.622;13.296;2024-02-21T10:06:11;8.90;80.40
16313;DHT22;8265;52.622;13.296;2024-02-21T10:11:32;8.90;79.90
16313;DHT22;8265;52.622;13.296;2024-02-21T10:16:57;9.00;80.10
16313;DHT22;8265;52.622;13.296;2024-02-21T10:22:14;9.10;79.40
16313;DHT22;8265;52.622;13.296;2024-02-21T10:27:36;9.20;79.70
16313;DHT22;8265;52.622;13.296;2024-02-21T10:32:56;9.20;79.40
16313;DHT22;8265;52.622;13.296;2024-02-21T10:38:17;9.20;78.80
16313;DHT22;8265;52.622;13.296;2024-02-21T10:43:41;9.20;79.20
16313;DHT22;8265;52.622;13.296;2024-02-21T10:49:04;9.00;80.20
16313;DHT22;8265;52.622;13.296;2024-02-21T10:59:41;9.00;80.30
16313;DHT22;8265;52.622;13.296;2024-02-21T11:05:02;9.00;80.80
16313;DHT22;8265;52.622;13.296;2024-02-21T11:10:23;9.20;80.90
16313;DHT22;8265;52.622;13.296;2024-02-21T11:15:44;9.20;81.90
16313;DHT22;8265;52.622;13.296;2024-02-21T11:21:05;9.40;80.50
16313;DHT22;8265;52.622;13.296;2024-02-21T11:26:27;9.50;79.30
16313;DHT22;8265;52.622;13.296;2024-02-21T11:31:47;9.50;79.70
16313;DHT22;8265;52.622;13.296;2024-02-21T11:37:14;9.60;78.70
16313;DHT22;8265;52.622;13.296;2024-02-21T11:42:29;9.60;78.60
16313;DHT22;8265;52.622;13.296;2024-02-21T11:47:50;10.00;78.10
16313;DHT22;8265;52.622;13.296;2024-02-21T11:53:11;10.00;77.00
16313;DHT22;8265;52.622;13.296;2024-02-21T11:58:32;10.20;76.20
16313;DHT22;8265;52.622;13.296;2024-02-21T12:03:53;10.20;75.90
16313;DHT22;8265;52.622;13.296;2024-02-21T12:09:14;10.40;74.60
16313;DHT22;8265;52.622;13.296;2024-02-21T12:14:35;10.30;74.80
16313;DHT22;8265;52.622;13.296;2024-02-21T12:19:56;10.30;74.10
16313;DHT22;8265;52.622;13.296;2024-02-21T12:25:17;10.50;73.60
16313;DHT22;8265;52.622;13.296;2024-02-21T12:30:38;10.60;73.40
16313;DHT22;8265;52.622;13.296;2024-02-21T12:35:59;10.80;73.20
16313;DHT22;8265;52.622;13.296;2024-02-21T12:41:20;10.80;72.60
16313;DHT22;8265;52.622;13.296;2024-02-21T12:46:41;11.00;72.60
16313;DHT22;8265;52.622;13.296;2024-02-21T12:52:05;11.30;71.60
16313;DHT22;8265;52.622;13.296;2024-02-21T12:57:23;11.10;72.00
16313;DHT22;8265;52.622;13.296;2024-02-21T13:02:44;11.20;72.10
16313;DHT22;8265;52.622;13.296;2024-02-21T13:08:08;11.00;72.30
16313;DHT22;8265;52.622;13.296;2024-02-21T13:13:26;10.90;72.60
16313;DHT22;8265;52.622;13.296;2024-02-21T13:18:47;11.00;72.50
16313;DHT22;8265;52.622;13.296;2024-02-21T13:24:08;10.90;72.90
16313;DHT22;8265;52.622;13.296;2024-02-21T13:29:29;11.10;72.50
16313;DHT22;8265;52.622;13.296;2024-02-21T13:34:50;11.20;70.80
16313;DHT22;8265;52.622;13.296;2024-02-21T13:40:11;11.10;71.70
16313;DHT22;8265;52.622;13.296;2024-02-21T13:45:32;10.90;72.30
16313;DHT22;8265;52.622;13.296;2024-02-21T13:50:53;10.80;72.90
16313;DHT22;8265;52.622;13.296;2024-02-21T13:56:14;10.80;72.40
16313;DHT22;8265;52.622;13.296;2024-02-21T14:01:35;10.80;72.60
16313;DHT22;8265;52.622;13.296;2024-02-21T14:06:56;10.70;73.20
16313;DHT22;8265;52.622;13.296;2024-02-21T14:12:17;10.70;73.20
16313;DHT22;8265;52.622;13.296;2024-02-21T14:17:38;10.50;73.30
16313;DHT22;8265;52.622;13.296;2024-02-21T14:22:59;10.40;73.70
16313;DHT22;8265;52.622;13.296;2024-02-21T14:28:20;10.40;74.00
16313;DHT22;8265;52.622;13.296;2024-02-21T14:33:41;10.40;74.40
16313;DHT22;8265;52.622;13.296;2024-02-21T14:39:02;10.40;74.00
16313;DHT22;8265;52.622;13.296;2024-02-21T14:44:23;10.40;74.00
16313;DHT22;8265;52.622;13.296;2024-02-21T14:49:44;10.40;74.30
16313;DHT22;8265;52.622;13.296;2024-02-21T14:55:05;10.40;74.30
16313;DHT22;8265;52.622;13.296;2024-02-21T15:00:26;10.30;74.10
16313;DHT22;8265;52.622;13.296;2024-02-21T15:05:47;10.40;74.20
16313;DHT22;8265;52.622;13.296;2024-02-21T15:11:08;10.40;73.90
16313;DHT22;8265;52.622;13.296;2024-02-21T15:16:29;10.30;74.50
16313;DHT22;8265;52.622;13.296;2024-02-21T15:21:50;10.30;74.50
16313;DHT22;8265;52.622;13.296;2024-02-21T15:27:11;10.20;73.10
16313;DHT22;8265;52.622;13.296;2024-02-21T15:32:32;10.30;72.70
16313;DHT22;8265;52.622;13.296;2024-02-21T15:37:53;10.30;71.90
16313;DHT22;8265;52.622;13.296;2024-02-21T15:43:14;10.30;70.80
16313;DHT22;8265;52.622;13.296;2024-02-21T15:48:35;10.10;70.70
16313;DHT22;8265;52.622;13.296;2024-02-21T15:53:56;9.80;72.00
16313;DHT22;8265;52.622;13.296;2024-02-21T15:59:17;9.70;72.00
16313;DHT22;8265;52.622;13.296;2024-02-21T16:04:38;9.50;72.90
16313;DHT22;8265;52.622;13.296;2024-02-21T16:09:59;9.40;73.20
16313;DHT22;8265;52.622;13.296;2024-02-21T16:15:20;9.10;74.00
16313;DHT22;8265;52.622;13.296;2024-02-21T16:20:41;8.80;75.50
16313;DHT22;8265;52.622;13.296;2024-02-21T16:26:02;8.70;75.70
16313;DHT22;8265;52.622;13.296;2024-02-21T16:31:23;8.60;76.50
16313;DHT22;8265;52.622;13.296;2024-02-21T16:36:44;8.30;77.80
16313;DHT22;8265;52.622;13.296;2024-02-21T16:42:04;8.00;78.70
16313;DHT22;8265;52.622;13.296;2024-02-21T16:47:25;7.90;79.10
16313;DHT22;8265;52.622;13.296;2024-02-21T16:52:46;7.80;79.00
16313;DHT22;8265;52.622;13.296;2024-02-21T16:58:07;7.80;79.30
16313;DHT22;8265;52.622;13.296;2024-02-21T17:03:28;7.50;80.20
16313;DHT22;8265;52.622;13.296;2024-02-21T17:08:49;7.50;80.20
16313;DHT22;8265;52.622;13.296;2024-02-21T17:14:10;7.50;81.00
16313;DHT22;8265;52.622;13.296;2024-02-21T17:19:31;7.60;80.40
16313;DHT22;8265;52.622;13.296;2024-02-21T17:24:52;7.80;79.20
16313;DHT22;8265;52.622;13.296;2024-02-21T17:30:14;7.70;79.00
16313;DHT22;8265;52.622;13.296;2024-02-21T17:35:35;7.70;78.90
16313;DHT22;8265;52.622;13.296;2024-02-21T17:40:56;7.60;78.90
16313;DHT22;8265;52.622;13.296;2024-02-21T17:46:17;7.50;79.30
16313;DHT22;8265;52.622;13.296;2024-02-21T17:51:38;7.50;79.20
16313;DHT22;8265;52.622;13.296;2024-02-21T17:56:58;7.50;79.00
16313;DHT22;8265;52.622;13.296;2024-02-21T18:02:19;7.50;78.90
16313;DHT22;8265;52.622;13.296;2024-02-21T18:07:40;7.40;79.30
16313;DHT22;8265;52.622;13.296;2024-02-21T18:13:01;7.30;79.40
16313;DHT22;8265;52.622;13.296;2024-02-21T18:18:22;7.10;80.00
16313;DHT22;8265;52.622;13.296;2024-02-21T18:23:43;6.90;80.90
16313;DHT22;8265;52.622;13.296;2024-02-21T18:29:04;6.90;81.20
16313;DHT22;8265;52.622;13.296;2024-02-21T18:34:25;6.80;81.90
16313;DHT22;8265;52.622;13.296;2024-02-21T18:39:46;6.70;82.30
16313;DHT22;8265;52.622;13.296;2024-02-21T18:45:07;6.70;82.10
16313;DHT22;8265;52.622;13.296;2024-02-21T18:50:28;6.80;82.00
16313;DHT22;8265;52.622;13.296;2024-02-21T18:55:49;6.80;82.10
16313;DHT22;8265;52.622;13.296;2024-02-21T19:01:10;6.80;82.10
16313;DHT22;8265;52.622;13.296;2024-02-21T19:06:31;6.80;82.20
16313;DHT22;8265;52.622;13.296;2024-02-21T19:11:53;6.80;82.40
16313;DHT22;8265;52.622;13.296;2024-02-21T19:17:13;6.70;82.70
16313;DHT22;8265;52.622;13.296;2024-02-21T19:22:34;6.80;82.50
16313;DHT22;8265;52.622;13.296;2024-02-21T19:27:55;6.80;83.00
16313;DHT22;8265;52.622;13.296;2024-02-21T19:33:16;6.80;82.80
16313;DHT22;8265;52.622;13.296;2024-02-21T19:38:37;6.80;83.00
16313;DHT22;8265;52.622;13.296;2024-02-21T19:43:58;6.80;83.40
16313;DHT22;8265;52.622;13.296;2024-02-21T19:49:19;6.80;83.90
16313;DHT22;8265;52.622;13.296;2024-02-21T19:54:40;6.90;83.30
16313;DHT22;8265;52.622;13.296;2024-02-21T20:00:02;6.90;83.60
16313;DHT22;8265;52.622;13.296;2024-02-21T20:05:22;7.00;83.50
16313;DHT22;8265;52.622;13.296;2024-02-21T20:10:43;6.90;83.70
16313;DHT22;8265;52.622;13.296;2024-02-21T20:16:04;7.00;83.40
16313;DHT22;8265;52.622;13.296;2024-02-21T20:21:25;7.00;83.70
16313;DHT22;8265;52.622;13.296;2024-02-21T20:26:46;7.20;82.70
16313;DHT22;8265;52.622;13.296;2024-02-21T20:32:07;7.20;82.50
16313;DHT22;8265;52.622;13.296;2024-02-21T20:37:28;7.20;82.00
16313;DHT22;8265;52.622;13.296;2024-02-21T20:42:49;7.20;81.80
16313;DHT22;8265;52.622;13.296;2024-02-21T20:48:10;7.20;81.30
16313;DHT22;8265;52.622;13.296;2024-02-21T20:53:31;7.20;80.70
16313;DHT22;8265;52.622;13.296;2024-02-21T20:58:52;7.30;80.50
16313;DHT22;8265;52.622;13.296;2024-02-21T21:04:13;7.20;80.30
16313;DHT22;8265;52.622;13.296;2024-02-21T21:09:34;7.20;80.00
16313;DHT22;8265;52.622;13.296;2024-02-21T21:14:55;7.20;79.80
16313;DHT22;8265;52.622;13.296;2024-02-21T21:20:16;7.20;79.60
16313;DHT22;8265;52.622;13.296;2024-02-21T21:25:37;7.20;79.50
16313;DHT22;8265;52.622;13.296;2024-02-21T21:30:58;7.20;79.20
16313;DHT22;8265;52.622;13.296;2024-02-21T21:36:19;7.40;78.70
16313;DHT22;8265;52.622;13.296;2024-02-21T21:41:40;7.30;78.60
16313;DHT22;8265;52.622;13.296;2024-02-21T21:47:01;7.30;78.40
16313;DHT22;8265;52.622;13.296;2024-02-21T21:52:22;7.40;77.70
16313;DHT22;8265;52.622;13.296;2024-02-21T21:57:44;7.40;76.70
16313;DHT22;8265;52.622;13.296;2024-02-21T22:03:04;7.50;76.40
16313;DHT22;8265;52.622;13.296;2024-02-21T22:08:25;7.50;76.50
16313;DHT22;8265;52.622;13.296;2024-02-21T22:13:46;7.50;75.70
16313;DHT22;8265;52.622;13.296;2024-02-21T22:19:07;7.60;75.10
16313;DHT22;8265;52.622;13.296;2024-02-21T22:24:28;7.50;75.30
16313;DHT22;8265;52.622;13.296;2024-02-21T22:29:49;7.60;75.10
16313;DHT22;8265;52.622;13.296;2024-02-21T22:35:10;7.50;74.70
16313;DHT22;8265;52.622;13.296;2024-02-21T22:40:31;7.50;75.10
16313;DHT22;8265;52.622;13.296;2024-02-21T22:45:52;7.50;74.60
16313;DHT22;8265;52.622;13.296;2024-02-21T22:51:13;7.60;74.40
16313;DHT22;8265;52.622;13.296;2024-02-21T22:56:34;7.70;73.90
16313;DHT22;8265;52.622;13.296;2024-02-21T23:01:55;7.50;74.30
16313;DHT22;8265;52.622;13.296;2024-02-21T23:07:16;7.50;74.00
16313;DHT22;8265;52.622;13.296;2024-02-21T23:12:37;7.50;73.50
16313;DHT22;8265;52.622;13.296;2024-02-21T23:17:58;7.60;73.60
16313;DHT22;8265;52.622;13.296;2024-02-21T23:23:19;7.60;73.50
16313;DHT22;8265;52.622;13.296;2024-02-21T23:28:43;7.50;73.60
16313;DHT22;8265;52.622;13.296;2024-02-21T23:34:01;7.60;73.00
16313;DHT22;8265;52.622;13.296;2024-02-21T23:39:22;7.60;73.10
16313;DHT22;8265;52.622;13.296;2024-02-21T23:44:43;7.50;73.10
16313;DHT22;8265;52.622;13.296;2024-02-21T23:50:04;7.50;73.40
16313;DHT22;8265;52.622;13.296;2024-02-21T23:55:25;7.50;73.40
